Terminal Aerodrome Forecast
Issued by NWS

Home | Current Version | Previous Version | Text Only | Print | Product List | Glossary On
Versions: 1 2 3 4 5 6 7 8 9 10 11 12 13
000
FTUS46 KPDT 221100
TAFPSC
TAF
KPSC 221139Z 2212/2312 VRB05KT P6SM SCT150
     FM221900 28007KT P6SM SCT150
     FM230100 VRB04KT P6SM BKN120
     FM230800 VRB03KT P6SM BKN100=

USA.gov is the U.S. government's official web portal to all federal, state and local government web resources and services.